sensor_id;sensor_type;location;lat;lon;timestamp;P1;durP1;ratioP1;P2;durP2;ratioP2
51459;SDS011;37534;39.772;2.718;2023-06-26T00:00:02;7.82;;;4.55;;
51459;SDS011;37534;39.772;2.718;2023-06-26T00:02:29;4.53;;;4.07;;
51459;SDS011;37534;39.772;2.718;2023-06-26T00:04:57;4.72;;;4.32;;
51459;SDS011;37534;39.772;2.718;2023-06-26T00:07:23;4.05;;;3.58;;
51459;SDS011;37534;39.772;2.718;2023-06-26T00:09:49;4.93;;;4.32;;
51459;SDS011;37534;39.772;2.718;2023-06-26T00:12:14;4.78;;;4.10;;
51459;SDS011;37534;39.772;2.718;2023-06-26T00:14:40;7.88;;;5.07;;
51459;SDS011;37534;39.772;2.718;2023-06-26T00:17:05;4.25;;;3.85;;
51459;SDS011;37534;39.772;2.718;2023-06-26T00:19:31;4.43;;;4.03;;
51459;SDS011;37534;39.772;2.718;2023-06-26T00:21:56;4.63;;;4.22;;
51459;SDS011;37534;39.772;2.718;2023-06-26T00:24:22;6.50;;;4.13;;
51459;SDS011;37534;39.772;2.718;2023-06-26T00:26:48;5.50;;;4.38;;
51459;SDS011;37534;39.772;2.718;2023-06-26T00:29:13;4.47;;;4.10;;
51459;SDS011;37534;39.772;2.718;2023-06-26T00:31:39;4.82;;;4.43;;
51459;SDS011;37534;39.772;2.718;2023-06-26T00:34:05;5.95;;;4.68;;
51459;SDS011;37534;39.772;2.718;2023-06-26T00:36:31;3.55;;;3.30;;
51459;SDS011;37534;39.772;2.718;2023-06-26T00:38:57;11.27;;;4.72;;
51459;SDS011;37534;39.772;2.718;2023-06-26T00:41:23;5.13;;;4.25;;
51459;SDS011;37534;39.772;2.718;2023-06-26T00:43:49;4.90;;;4.35;;
51459;SDS011;37534;39.772;2.718;2023-06-26T00:46:16;6.25;;;4.45;;
51459;SDS011;37534;39.772;2.718;2023-06-26T00:48:43;4.97;;;4.55;;
51459;SDS011;37534;39.772;2.718;2023-06-26T00:51:09;6.45;;;4.40;;
51459;SDS011;37534;39.772;2.718;2023-06-26T00:53:35;5.72;;;5.18;;
51459;SDS011;37534;39.772;2.718;2023-06-26T00:56:01;6.85;;;4.20;;
51459;SDS011;37534;39.772;2.718;2023-06-26T00:58:28;4.82;;;4.43;;
51459;SDS011;37534;39.772;2.718;2023-06-26T01:00:54;4.43;;;4.07;;
51459;SDS011;37534;39.772;2.718;2023-06-26T01:03:21;7.57;;;5.25;;
51459;SDS011;37534;39.772;2.718;2023-06-26T01:05:51;5.00;;;4.50;;
51459;SDS011;37534;39.772;2.718;2023-06-26T01:08:17;5.25;;;4.35;;
51459;SDS011;37534;39.772;2.718;2023-06-26T01:10:45;10.73;;;4.57;;
51459;SDS011;37534;39.772;2.718;2023-06-26T01:13:11;6.72;;;4.63;;
51459;SDS011;37534;39.772;2.718;2023-06-26T01:15:38;7.00;;;5.18;;
51459;SDS011;37534;39.772;2.718;2023-06-26T01:18:04;4.68;;;4.28;;
51459;SDS011;37534;39.772;2.718;2023-06-26T01:20:32;5.30;;;4.70;;
51459;SDS011;37534;39.772;2.718;2023-06-26T01:23:06;8.40;;;5.78;;
51459;SDS011;37534;39.772;2.718;2023-06-26T01:28:17;8.75;;;3.97;;
51459;SDS011;37534;39.772;2.718;2023-06-26T01:30:45;4.13;;;3.75;;
51459;SDS011;37534;39.772;2.718;2023-06-26T01:33:12;5.45;;;4.75;;
51459;SDS011;37534;39.772;2.718;2023-06-26T01:35:38;4.95;;;4.55;;
51459;SDS011;37534;39.772;2.718;2023-06-26T01:38:38;5.40;;;4.38;;
51459;SDS011;37534;39.772;2.718;2023-06-26T01:40:57;7.72;;;3.88;;
51459;SDS011;37534;39.772;2.718;2023-06-26T01:46:18;15.90;;;4.25;;
51459;SDS011;37534;39.772;2.718;2023-06-26T01:51:51;3.75;;;3.35;;
51459;SDS011;37534;39.772;2.718;2023-06-26T01:54:20;3.85;;;3.65;;
51459;SDS011;37534;39.772;2.718;2023-06-26T01:56:49;4.22;;;3.78;;
51459;SDS011;37534;39.772;2.718;2023-06-26T01:59:17;5.35;;;4.72;;
51459;SDS011;37534;39.772;2.718;2023-06-26T02:01:46;4.28;;;3.88;;
51459;SDS011;37534;39.772;2.718;2023-06-26T02:04:12;5.68;;;4.25;;
51459;SDS011;37534;39.772;2.718;2023-06-26T02:06:37;5.13;;;4.63;;
51459;SDS011;37534;39.772;2.718;2023-06-26T02:09:03;4.15;;;3.83;;
51459;SDS011;37534;39.772;2.718;2023-06-26T02:11:28;13.43;;;4.05;;
51459;SDS011;37534;39.772;2.718;2023-06-26T02:13:54;4.47;;;4.07;;
51459;SDS011;37534;39.772;2.718;2023-06-26T02:16:19;4.55;;;4.18;;
51459;SDS011;37534;39.772;2.718;2023-06-26T02:18:45;5.93;;;4.38;;
51459;SDS011;37534;39.772;2.718;2023-06-26T02:21:10;6.88;;;4.78;;
51459;SDS011;37534;39.772;2.718;2023-06-26T02:23:36;4.95;;;4.18;;
51459;SDS011;37534;39.772;2.718;2023-06-26T02:26:02;8.38;;;4.78;;
51459;SDS011;37534;39.772;2.718;2023-06-26T02:28:28;5.00;;;4.50;;
51459;SDS011;37534;39.772;2.718;2023-06-26T02:30:55;4.18;;;3.88;;
51459;SDS011;37534;39.772;2.718;2023-06-26T02:33:21;10.68;;;4.70;;
51459;SDS011;37534;39.772;2.718;2023-06-26T02:35:47;5.28;;;4.47;;
51459;SDS011;37534;39.772;2.718;2023-06-26T02:38:15;4.15;;;3.72;;
51459;SDS011;37534;39.772;2.718;2023-06-26T02:40:40;4.50;;;4.07;;
51459;SDS011;37534;39.772;2.718;2023-06-26T02:43:06;3.92;;;3.33;;
51459;SDS011;37534;39.772;2.718;2023-06-26T02:45:31;4.18;;;3.78;;
51459;SDS011;37534;39.772;2.718;2023-06-26T02:47:57;6.35;;;4.90;;
51459;SDS011;37534;39.772;2.718;2023-06-26T02:50:22;5.53;;;4.22;;
51459;SDS011;37534;39.772;2.718;2023-06-26T02:52:48;5.97;;;5.35;;
51459;SDS011;37534;39.772;2.718;2023-06-26T02:55:17;7.60;;;6.57;;
51459;SDS011;37534;39.772;2.718;2023-06-26T02:57:46;5.55;;;4.95;;
51459;SDS011;37534;39.772;2.718;2023-06-26T03:00:12;6.20;;;5.70;;
51459;SDS011;37534;39.772;2.718;2023-06-26T03:02:38;5.78;;;5.22;;
51459;SDS011;37534;39.772;2.718;2023-06-26T03:05:03;5.60;;;4.53;;
51459;SDS011;37534;39.772;2.718;2023-06-26T03:07:29;5.78;;;4.32;;
51459;SDS011;37534;39.772;2.718;2023-06-26T03:09:55;5.72;;;4.40;;
51459;SDS011;37534;39.772;2.718;2023-06-26T03:12:20;6.05;;;4.85;;
51459;SDS011;37534;39.772;2.718;2023-06-26T03:14:46;5.60;;;4.53;;
51459;SDS011;37534;39.772;2.718;2023-06-26T03:17:11;4.50;;;4.10;;
51459;SDS011;37534;39.772;2.718;2023-06-26T03:19:37;4.55;;;4.20;;
51459;SDS011;37534;39.772;2.718;2023-06-26T03:22:03;9.30;;;4.97;;
51459;SDS011;37534;39.772;2.718;2023-06-26T03:24:30;6.28;;;4.47;;
51459;SDS011;37534;39.772;2.718;2023-06-26T03:26:56;4.88;;;4.45;;
51459;SDS011;37534;39.772;2.718;2023-06-26T03:29:21;5.97;;;4.38;;
51459;SDS011;37534;39.772;2.718;2023-06-26T03:31:47;5.70;;;5.10;;
51459;SDS011;37534;39.772;2.718;2023-06-26T03:34:12;5.13;;;4.10;;
51459;SDS011;37534;39.772;2.718;2023-06-26T03:36:38;5.78;;;4.47;;
51459;SDS011;37534;39.772;2.718;2023-06-26T03:39:03;7.07;;;4.47;;
51459;SDS011;37534;39.772;2.718;2023-06-26T03:41:29;4.85;;;4.22;;
51459;SDS011;37534;39.772;2.718;2023-06-26T03:43:55;6.68;;;4.47;;
51459;SDS011;37534;39.772;2.718;2023-06-26T03:46:21;6.53;;;4.88;;
51459;SDS011;37534;39.772;2.718;2023-06-26T03:48:47;4.00;;;3.70;;
51459;SDS011;37534;39.772;2.718;2023-06-26T03:51:13;6.90;;;4.85;;
51459;SDS011;37534;39.772;2.718;2023-06-26T03:53:39;4.55;;;4.15;;
51459;SDS011;37534;39.772;2.718;2023-06-26T03:56:05;4.05;;;3.50;;
51459;SDS011;37534;39.772;2.718;2023-06-26T03:58:30;5.25;;;4.75;;
51459;SDS011;37534;39.772;2.718;2023-06-26T04:00:56;9.18;;;4.57;;
51459;SDS011;37534;39.772;2.718;2023-06-26T04:03:23;6.20;;;4.47;;
51459;SDS011;37534;39.772;2.718;2023-06-26T04:05:49;5.80;;;4.90;;
51459;SDS011;37534;39.772;2.718;2023-06-26T04:08:14;7.00;;;5.38;;
51459;SDS011;37534;39.772;2.718;2023-06-26T04:10:40;4.95;;;4.47;;
51459;SDS011;37534;39.772;2.718;2023-06-26T04:13:05;5.43;;;4.93;;
51459;SDS011;37534;39.772;2.718;2023-06-26T04:15:31;5.40;;;4.85;;
51459;SDS011;37534;39.772;2.718;2023-06-26T04:17:56;4.97;;;4.47;;
51459;SDS011;37534;39.772;2.718;2023-06-26T04:20:22;5.75;;;5.20;;
51459;SDS011;37534;39.772;2.718;2023-06-26T04:22:47;6.15;;;5.03;;
51459;SDS011;37534;39.772;2.718;2023-06-26T04:25:13;7.35;;;5.25;;
51459;SDS011;37534;39.772;2.718;2023-06-26T04:27:38;6.22;;;4.85;;
51459;SDS011;37534;39.772;2.718;2023-06-26T04:30:04;5.45;;;4.65;;
51459;SDS011;37534;39.772;2.718;2023-06-26T04:32:30;5.30;;;4.82;;
51459;SDS011;37534;39.772;2.718;2023-06-26T04:34:56;4.95;;;4.40;;
51459;SDS011;37534;39.772;2.718;2023-06-26T04:37:22;6.68;;;5.35;;
51459;SDS011;37534;39.772;2.718;2023-06-26T04:39:47;6.38;;;5.57;;
51459;SDS011;37534;39.772;2.718;2023-06-26T04:42:13;5.47;;;4.97;;
51459;SDS011;37534;39.772;2.718;2023-06-26T04:44:39;5.80;;;5.28;;
51459;SDS011;37534;39.772;2.718;2023-06-26T04:47:06;6.57;;;5.82;;
51459;SDS011;37534;39.772;2.718;2023-06-26T04:49:32;6.28;;;5.32;;
51459;SDS011;37534;39.772;2.718;2023-06-26T04:51:57;5.10;;;4.30;;
51459;SDS011;37534;39.772;2.718;2023-06-26T04:54:25;5.88;;;5.15;;
51459;SDS011;37534;39.772;2.718;2023-06-26T04:56:51;6.45;;;5.80;;
51459;SDS011;37534;39.772;2.718;2023-06-26T04:59:16;7.15;;;4.68;;
51459;SDS011;37534;39.772;2.718;2023-06-26T05:01:42;7.00;;;4.78;;
51459;SDS011;37534;39.772;2.718;2023-06-26T05:04:13;5.95;;;5.40;;
51459;SDS011;37534;39.772;2.718;2023-06-26T05:06:40;7.30;;;6.55;;
51459;SDS011;37534;39.772;2.718;2023-06-26T05:09:05;6.03;;;4.93;;
51459;SDS011;37534;39.772;2.718;2023-06-26T05:11:31;5.15;;;4.43;;
51459;SDS011;37534;39.772;2.718;2023-06-26T05:13:56;7.05;;;5.20;;
51459;SDS011;37534;39.772;2.718;2023-06-26T05:16:22;8.18;;;5.43;;
51459;SDS011;37534;39.772;2.718;2023-06-26T05:18:47;6.28;;;5.68;;
51459;SDS011;37534;39.772;2.718;2023-06-26T05:21:13;11.68;;;5.45;;
51459;SDS011;37534;39.772;2.718;2023-06-26T05:23:38;10.70;;;5.65;;
51459;SDS011;37534;39.772;2.718;2023-06-26T05:26:04;5.22;;;4.72;;
51459;SDS011;37534;39.772;2.718;2023-06-26T05:28:30;7.90;;;5.63;;
51459;SDS011;37534;39.772;2.718;2023-06-26T05:30:56;6.95;;;6.13;;
51459;SDS011;37534;39.772;2.718;2023-06-26T05:33:23;6.75;;;5.57;;
51459;SDS011;37534;39.772;2.718;2023-06-26T05:35:52;6.63;;;5.10;;
51459;SDS011;37534;39.772;2.718;2023-06-26T05:38:19;13.40;;;5.38;;
51459;SDS011;37534;39.772;2.718;2023-06-26T05:40:45;6.03;;;5.45;;
51459;SDS011;37534;39.772;2.718;2023-06-26T05:43:11;8.65;;;5.78;;
51459;SDS011;37534;39.772;2.718;2023-06-26T05:45:37;12.02;;;5.60;;
51459;SDS011;37534;39.772;2.718;2023-06-26T05:48:03;5.50;;;4.95;;
51459;SDS011;37534;39.772;2.718;2023-06-26T05:50:29;7.82;;;6.70;;
51459;SDS011;37534;39.772;2.718;2023-06-26T05:52:54;10.10;;;5.50;;
51459;SDS011;37534;39.772;2.718;2023-06-26T05:55:20;6.80;;;5.00;;
51459;SDS011;37534;39.772;2.718;2023-06-26T05:57:47;8.30;;;5.85;;
51459;SDS011;37534;39.772;2.718;2023-06-26T06:00:13;6.22;;;5.20;;
51459;SDS011;37534;39.772;2.718;2023-06-26T06:02:39;6.55;;;5.75;;
51459;SDS011;37534;39.772;2.718;2023-06-26T06:05:06;5.13;;;4.72;;
51459;SDS011;37534;39.772;2.718;2023-06-26T06:07:33;8.30;;;5.38;;
51459;SDS011;37534;39.772;2.718;2023-06-26T06:10:00;11.90;;;4.03;;
51459;SDS011;37534;39.772;2.718;2023-06-26T06:12:27;9.15;;;5.45;;
51459;SDS011;37534;39.772;2.718;2023-06-26T06:14:53;6.60;;;5.60;;
51459;SDS011;37534;39.772;2.718;2023-06-26T06:17:20;7.57;;;4.93;;
51459;SDS011;37534;39.772;2.718;2023-06-26T06:19:45;7.35;;;5.72;;
51459;SDS011;37534;39.772;2.718;2023-06-26T06:22:11;8.82;;;6.03;;
51459;SDS011;37534;39.772;2.718;2023-06-26T06:24:36;10.23;;;6.60;;
51459;SDS011;37534;39.772;2.718;2023-06-26T06:27:02;6.15;;;5.55;;
51459;SDS011;37534;39.772;2.718;2023-06-26T06:29:28;8.00;;;5.45;;
51459;SDS011;37534;39.772;2.718;2023-06-26T06:31:54;5.90;;;5.40;;
51459;SDS011;37534;39.772;2.718;2023-06-26T06:34:19;7.88;;;5.40;;
51459;SDS011;37534;39.772;2.718;2023-06-26T06:36:46;6.60;;;4.90;;
51459;SDS011;37534;39.772;2.718;2023-06-26T06:39:12;5.35;;;4.85;;
51459;SDS011;37534;39.772;2.718;2023-06-26T06:41:37;5.75;;;5.07;;
51459;SDS011;37534;39.772;2.718;2023-06-26T06:44:03;8.88;;;5.78;;
51459;SDS011;37534;39.772;2.718;2023-06-26T06:46:29;6.35;;;5.38;;
51459;SDS011;37534;39.772;2.718;2023-06-26T06:48:54;9.68;;;5.57;;
51459;SDS011;37534;39.772;2.718;2023-06-26T06:51:21;7.10;;;5.40;;
51459;SDS011;37534;39.772;2.718;2023-06-26T06:53:47;9.23;;;5.28;;
51459;SDS011;37534;39.772;2.718;2023-06-26T06:56:12;5.47;;;4.80;;
51459;SDS011;37534;39.772;2.718;2023-06-26T06:58:38;7.88;;;5.55;;
51459;SDS011;37534;39.772;2.718;2023-06-26T07:01:06;6.00;;;5.43;;
51459;SDS011;37534;39.772;2.718;2023-06-26T07:03:31;5.38;;;4.90;;
51459;SDS011;37534;39.772;2.718;2023-06-26T07:05:57;5.85;;;5.35;;
51459;SDS011;37534;39.772;2.718;2023-06-26T07:08:22;8.30;;;6.32;;
51459;SDS011;37534;39.772;2.718;2023-06-26T07:10:48;5.35;;;4.95;;
51459;SDS011;37534;39.772;2.718;2023-06-26T07:13:13;5.43;;;4.63;;
51459;SDS011;37534;39.772;2.718;2023-06-26T07:15:39;5.78;;;5.35;;
51459;SDS011;37534;39.772;2.718;2023-06-26T07:18:04;6.00;;;4.93;;
51459;SDS011;37534;39.772;2.718;2023-06-26T07:20:29;6.80;;;5.30;;
51459;SDS011;37534;39.772;2.718;2023-06-26T07:22:55;6.20;;;5.65;;
51459;SDS011;37534;39.772;2.718;2023-06-26T07:25:20;13.68;;;6.18;;
51459;SDS011;37534;39.772;2.718;2023-06-26T07:27:46;7.25;;;5.22;;
51459;SDS011;37534;39.772;2.718;2023-06-26T07:30:12;6.93;;;4.80;;
51459;SDS011;37534;39.772;2.718;2023-06-26T07:32:38;7.95;;;5.28;;
51459;SDS011;37534;39.772;2.718;2023-06-26T07:35:05;5.78;;;5.28;;
51459;SDS011;37534;39.772;2.718;2023-06-26T07:37:31;16.83;;;5.82;;
51459;SDS011;37534;39.772;2.718;2023-06-26T07:39:57;8.98;;;5.10;;
51459;SDS011;37534;39.772;2.718;2023-06-26T07:42:23;9.10;;;5.20;;
51459;SDS011;37534;39.772;2.718;2023-06-26T07:44:48;5.47;;;5.03;;
51459;SDS011;37534;39.772;2.718;2023-06-26T07:47:14;4.88;;;4.40;;
51459;SDS011;37534;39.772;2.718;2023-06-26T07:49:40;9.73;;;5.35;;
51459;SDS011;37534;39.772;2.718;2023-06-26T07:52:05;4.93;;;4.47;;
51459;SDS011;37534;39.772;2.718;2023-06-26T07:54:31;6.43;;;5.45;;
51459;SDS011;37534;39.772;2.718;2023-06-26T07:56:57;4.43;;;4.03;;
51459;SDS011;37534;39.772;2.718;2023-06-26T07:59:27;10.35;;;4.88;;
51459;SDS011;37534;39.772;2.718;2023-06-26T08:01:54;6.32;;;4.60;;
51459;SDS011;37534;39.772;2.718;2023-06-26T08:04:21;6.70;;;4.22;;
51459;SDS011;37534;39.772;2.718;2023-06-26T08:06:49;4.95;;;4.55;;
51459;SDS011;37534;39.772;2.718;2023-06-26T08:09:15;8.32;;;4.50;;
51459;SDS011;37534;39.772;2.718;2023-06-26T08:11:42;5.45;;;4.47;;
51459;SDS011;37534;39.772;2.718;2023-06-26T08:14:07;4.63;;;4.22;;
51459;SDS011;37534;39.772;2.718;2023-06-26T08:16:33;5.07;;;4.63;;
51459;SDS011;37534;39.772;2.718;2023-06-26T08:18:58;5.75;;;4.53;;
51459;SDS011;37534;39.772;2.718;2023-06-26T08:21:24;4.75;;;3.65;;
51459;SDS011;37534;39.772;2.718;2023-06-26T08:23:49;3.60;;;3.30;;
51459;SDS011;37534;39.772;2.718;2023-06-26T08:26:15;6.30;;;4.18;;
51459;SDS011;37534;39.772;2.718;2023-06-26T08:28:40;3.75;;;3.45;;
51459;SDS011;37534;39.772;2.718;2023-06-26T08:31:06;5.60;;;3.85;;
51459;SDS011;37534;39.772;2.718;2023-06-26T08:33:31;4.15;;;3.38;;
51459;SDS011;37534;39.772;2.718;2023-06-26T08:35:57;5.85;;;3.40;;
51459;SDS011;37534;39.772;2.718;2023-06-26T08:38:22;5.35;;;3.25;;
51459;SDS011;37534;39.772;2.718;2023-06-26T08:40:47;3.65;;;3.28;;
51459;SDS011;37534;39.772;2.718;2023-06-26T08:43:13;4.05;;;3.63;;
51459;SDS011;37534;39.772;2.718;2023-06-26T08:45:39;4.13;;;3.10;;
51459;SDS011;37534;39.772;2.718;2023-06-26T08:48:07;4.43;;;3.63;;
51459;SDS011;37534;39.772;2.718;2023-06-26T08:50:33;4.05;;;3.22;;
51459;SDS011;37534;39.772;2.718;2023-06-26T08:55:48;3.65;;;3.35;;
51459;SDS011;37534;39.772;2.718;2023-06-26T08:58:17;3.25;;;2.95;;
51459;SDS011;37534;39.772;2.718;2023-06-26T09:00:42;3.85;;;3.28;;
51459;SDS011;37534;39.772;2.718;2023-06-26T09:03:08;6.18;;;3.40;;
51459;SDS011;37534;39.772;2.718;2023-06-26T09:05:35;3.72;;;3.08;;
51459;SDS011;37534;39.772;2.718;2023-06-26T09:08:00;3.90;;;3.20;;
51459;SDS011;37534;39.772;2.718;2023-06-26T09:10:26;4.95;;;2.70;;
51459;SDS011;37534;39.772;2.718;2023-06-26T09:12:54;3.85;;;3.17;;
51459;SDS011;37534;39.772;2.718;2023-06-26T09:15:21;4.97;;;2.72;;
51459;SDS011;37534;39.772;2.718;2023-06-26T09:17:47;4.03;;;3.03;;
51459;SDS011;37534;39.772;2.718;2023-06-26T09:20:13;3.83;;;3.38;;
51459;SDS011;37534;39.772;2.718;2023-06-26T09:22:40;2.63;;;2.42;;
51459;SDS011;37534;39.772;2.718;2023-06-26T09:25:08;6.25;;;2.75;;
51459;SDS011;37534;39.772;2.718;2023-06-26T09:27:34;2.72;;;2.53;;
51459;SDS011;37534;39.772;2.718;2023-06-26T09:30:03;3.22;;;2.47;;
51459;SDS011;37534;39.772;2.718;2023-06-26T09:32:29;2.70;;;2.25;;
51459;SDS011;37534;39.772;2.718;2023-06-26T09:34:55;3.33;;;1.98;;
51459;SDS011;37534;39.772;2.718;2023-06-26T09:37:25;3.97;;;2.75;;
51459;SDS011;37534;39.772;2.718;2023-06-26T09:39:51;3.40;;;2.72;;
51459;SDS011;37534;39.772;2.718;2023-06-26T09:42:17;6.43;;;2.60;;
51459;SDS011;37534;39.772;2.718;2023-06-26T09:44:44;2.65;;;2.45;;
51459;SDS011;37534;39.772;2.718;2023-06-26T09:47:10;3.38;;;3.08;;
51459;SDS011;37534;39.772;2.718;2023-06-26T09:49:36;3.25;;;2.65;;
51459;SDS011;37534;39.772;2.718;2023-06-26T09:52:06;6.50;;;3.10;;
51459;SDS011;37534;39.772;2.718;2023-06-26T09:54:32;2.67;;;2.45;;
51459;SDS011;37534;39.772;2.718;2023-06-26T09:57:10;2.28;;;2.08;;
51459;SDS011;37534;39.772;2.718;2023-06-26T09:59:37;6.82;;;3.30;;
51459;SDS011;37534;39.772;2.718;2023-06-26T10:02:03;2.97;;;2.60;;
51459;SDS011;37534;39.772;2.718;2023-06-26T10:04:29;3.88;;;2.83;;
51459;SDS011;37534;39.772;2.718;2023-06-26T10:06:56;2.78;;;2.50;;
51459;SDS011;37534;39.772;2.718;2023-06-26T10:09:23;3.20;;;2.88;;
51459;SDS011;37534;39.772;2.718;2023-06-26T10:11:56;3.97;;;3.08;;
51459;SDS011;37534;39.772;2.718;2023-06-26T10:14:27;4.25;;;2.97;;
51459;SDS011;37534;39.772;2.718;2023-06-26T10:17:00;3.55;;;3.05;;
51459;SDS011;37534;39.772;2.718;2023-06-26T10:19:28;6.65;;;3.17;;
51459;SDS011;37534;39.772;2.718;2023-06-26T10:21:57;8.07;;;2.95;;
51459;SDS011;37534;39.772;2.718;2023-06-26T10:24:25;7.45;;;3.70;;
51459;SDS011;37534;39.772;2.718;2023-06-26T10:26:55;2.95;;;2.65;;
51459;SDS011;37534;39.772;2.718;2023-06-26T10:29:24;4.65;;;3.35;;
51459;SDS011;37534;39.772;2.718;2023-06-26T10:31:51;3.47;;;3.17;;
51459;SDS011;37534;39.772;2.718;2023-06-26T10:34:20;6.38;;;3.17;;
51459;SDS011;37534;39.772;2.718;2023-06-26T10:36:46;3.30;;;2.60;;
51459;SDS011;37534;39.772;2.718;2023-06-26T10:39:13;4.32;;;3.22;;
51459;SDS011;37534;39.772;2.718;2023-06-26T10:41:39;2.53;;;2.33;;
51459;SDS011;37534;39.772;2.718;2023-06-26T10:44:10;3.50;;;2.55;;
51459;SDS011;37534;39.772;2.718;2023-06-26T10:46:54;7.65;;;3.10;;
51459;SDS011;37534;39.772;2.718;2023-06-26T10:49:28;2.60;;;2.40;;
51459;SDS011;37534;39.772;2.718;2023-06-26T10:52:00;3.05;;;2.67;;
51459;SDS011;37534;39.772;2.718;2023-06-26T10:54:28;9.25;;;2.70;;
51459;SDS011;37534;39.772;2.718;2023-06-26T10:56:55;3.38;;;3.10;;
51459;SDS011;37534;39.772;2.718;2023-06-26T10:59:24;4.32;;;2.83;;
51459;SDS011;37534;39.772;2.718;2023-06-26T11:01:54;4.97;;;2.65;;
51459;SDS011;37534;39.772;2.718;2023-06-26T11:04:47;3.10;;;2.70;;
51459;SDS011;37534;39.772;2.718;2023-06-26T11:07:19;5.28;;;3.25;;
51459;SDS011;37534;39.772;2.718;2023-06-26T11:10:09;11.13;;;3.00;;
51459;SDS011;37534;39.772;2.718;2023-06-26T11:12:35;8.13;;;2.58;;
51459;SDS011;37534;39.772;2.718;2023-06-26T11:15:02;3.45;;;3.13;;
51459;SDS011;37534;39.772;2.718;2023-06-26T11:17:28;3.92;;;3.30;;
51459;SDS011;37534;39.772;2.718;2023-06-26T11:19:54;6.32;;;2.95;;
51459;SDS011;37534;39.772;2.718;2023-06-26T11:22:20;4.55;;;2.80;;
51459;SDS011;37534;39.772;2.718;2023-06-26T11:24:49;3.50;;;3.17;;
51459;SDS011;37534;39.772;2.718;2023-06-26T11:27:18;2.85;;;2.65;;
51459;SDS011;37534;39.772;2.718;2023-06-26T11:29:47;4.47;;;3.10;;
51459;SDS011;37534;39.772;2.718;2023-06-26T11:32:14;3.03;;;2.83;;
51459;SDS011;37534;39.772;2.718;2023-06-26T11:34:40;2.90;;;2.70;;
51459;SDS011;37534;39.772;2.718;2023-06-26T11:37:08;3.63;;;2.85;;
51459;SDS011;37534;39.772;2.718;2023-06-26T11:39:33;5.13;;;3.15;;
51459;SDS011;37534;39.772;2.718;2023-06-26T11:41:59;4.05;;;3.15;;
51459;SDS011;37534;39.772;2.718;2023-06-26T11:44:28;4.97;;;3.03;;
51459;SDS011;37534;39.772;2.718;2023-06-26T11:46:55;3.65;;;2.90;;
51459;SDS011;37534;39.772;2.718;2023-06-26T11:49:21;3.33;;;3.03;;
51459;SDS011;37534;39.772;2.718;2023-06-26T11:51:50;5.00;;;3.72;;
51459;SDS011;37534;39.772;2.718;2023-06-26T11:54:16;7.40;;;3.22;;
51459;SDS011;37534;39.772;2.718;2023-06-26T11:56:55;4.97;;;3.42;;
51459;SDS011;37534;39.772;2.718;2023-06-26T11:59:22;4.55;;;2.92;;
51459;SDS011;37534;39.772;2.718;2023-06-26T12:01:49;6.75;;;3.03;;
51459;SDS011;37534;39.772;2.718;2023-06-26T12:04:16;3.70;;;3.40;;
51459;SDS011;37534;39.772;2.718;2023-06-26T12:06:47;3.10;;;2.88;;
51459;SDS011;37534;39.772;2.718;2023-06-26T12:11:43;2.97;;;2.72;;
51459;SDS011;37534;39.772;2.718;2023-06-26T12:14:09;9.90;;;3.80;;
51459;SDS011;37534;39.772;2.718;2023-06-26T12:16:36;2.60;;;2.40;;
51459;SDS011;37534;39.772;2.718;2023-06-26T12:19:06;6.35;;;3.30;;
51459;SDS011;37534;39.772;2.718;2023-06-26T12:23:59;12.65;;;3.70;;
51459;SDS011;37534;39.772;2.718;2023-06-26T12:26:25;5.68;;;2.88;;
51459;SDS011;37534;39.772;2.718;2023-06-26T12:28:52;7.68;;;3.72;;
51459;SDS011;37534;39.772;2.718;2023-06-26T12:31:19;4.35;;;3.08;;
51459;SDS011;37534;39.772;2.718;2023-06-26T12:33:47;3.67;;;3.03;;
51459;SDS011;37534;39.772;2.718;2023-06-26T12:36:13;5.93;;;2.95;;
51459;SDS011;37534;39.772;2.718;2023-06-26T12:38:40;4.68;;;3.25;;
51459;SDS011;37534;39.772;2.718;2023-06-26T12:41:11;2.72;;;2.53;;
51459;SDS011;37534;39.772;2.718;2023-06-26T12:43:41;3.15;;;2.92;;
51459;SDS011;37534;39.772;2.718;2023-06-26T12:46:07;4.22;;;3.05;;
51459;SDS011;37534;39.772;2.718;2023-06-26T12:48:36;3.85;;;2.83;;
51459;SDS011;37534;39.772;2.718;2023-06-26T12:51:12;4.03;;;3.03;;
51459;SDS011;37534;39.772;2.718;2023-06-26T12:53:39;3.35;;;2.95;;
51459;SDS011;37534;39.772;2.718;2023-06-26T12:56:05;6.63;;;2.70;;
51459;SDS011;37534;39.772;2.718;2023-06-26T12:58:32;4.90;;;3.33;;
51459;SDS011;37534;39.772;2.718;2023-06-26T13:00:58;5.07;;;3.10;;
51459;SDS011;37534;39.772;2.718;2023-06-26T13:03:23;3.88;;;3.38;;
51459;SDS011;37534;39.772;2.718;2023-06-26T13:05:49;5.47;;;2.85;;
51459;SDS011;37534;39.772;2.718;2023-06-26T13:08:14;2.45;;;2.25;;
51459;SDS011;37534;39.772;2.718;2023-06-26T13:10:42;3.42;;;3.13;;
51459;SDS011;37534;39.772;2.718;2023-06-26T13:13:09;4.00;;;2.72;;
51459;SDS011;37534;39.772;2.718;2023-06-26T13:15:35;4.45;;;2.90;;
51459;SDS011;37534;39.772;2.718;2023-06-26T13:18:01;4.32;;;3.47;;
51459;SDS011;37534;39.772;2.718;2023-06-26T13:20:26;3.10;;;2.85;;
51459;SDS011;37534;39.772;2.718;2023-06-26T13:22:53;5.70;;;3.55;;
51459;SDS011;37534;39.772;2.718;2023-06-26T13:25:19;6.97;;;3.40;;
51459;SDS011;37534;39.772;2.718;2023-06-26T13:27:45;4.20;;;2.92;;
51459;SDS011;37534;39.772;2.718;2023-06-26T13:30:10;7.57;;;3.25;;
51459;SDS011;37534;39.772;2.718;2023-06-26T13:32:36;2.47;;;2.28;;
51459;SDS011;37534;39.772;2.718;2023-06-26T13:35:02;4.53;;;3.00;;
51459;SDS011;37534;39.772;2.718;2023-06-26T13:37:28;7.25;;;3.17;;
51459;SDS011;37534;39.772;2.718;2023-06-26T13:39:54;4.00;;;2.13;;
51459;SDS011;37534;39.772;2.718;2023-06-26T13:42:20;3.88;;;3.47;;
51459;SDS011;37534;39.772;2.718;2023-06-26T13:44:47;2.85;;;2.65;;
51459;SDS011;37534;39.772;2.718;2023-06-26T13:47:13;3.35;;;2.90;;
51459;SDS011;37534;39.772;2.718;2023-06-26T13:49:40;3.78;;;2.85;;
51459;SDS011;37534;39.772;2.718;2023-06-26T13:52:05;4.20;;;3.08;;
51459;SDS011;37534;39.772;2.718;2023-06-26T13:54:35;3.28;;;2.97;;
51459;SDS011;37534;39.772;2.718;2023-06-26T13:57:06;6.50;;;3.90;;
51459;SDS011;37534;39.772;2.718;2023-06-26T13:59:32;3.33;;;3.03;;
51459;SDS011;37534;39.772;2.718;2023-06-26T14:01:59;6.03;;;2.30;;
51459;SDS011;37534;39.772;2.718;2023-06-26T14:04:24;3.03;;;2.72;;
51459;SDS011;37534;39.772;2.718;2023-06-26T14:06:50;3.20;;;2.60;;
51459;SDS011;37534;39.772;2.718;2023-06-26T14:09:16;5.88;;;2.47;;
51459;SDS011;37534;39.772;2.718;2023-06-26T14:11:41;4.75;;;2.70;;
51459;SDS011;37534;39.772;2.718;2023-06-26T14:14:09;2.92;;;2.70;;
51459;SDS011;37534;39.772;2.718;2023-06-26T14:16:34;6.72;;;2.97;;
51459;SDS011;37534;39.772;2.718;2023-06-26T14:19:00;3.33;;;3.00;;
51459;SDS011;37534;39.772;2.718;2023-06-26T14:21:26;4.75;;;3.35;;
51459;SDS011;37534;39.772;2.718;2023-06-26T14:23:53;10.02;;;4.07;;
51459;SDS011;37534;39.772;2.718;2023-06-26T14:26:19;3.45;;;3.05;;
51459;SDS011;37534;39.772;2.718;2023-06-26T14:28:44;3.58;;;3.30;;
51459;SDS011;37534;39.772;2.718;2023-06-26T14:31:10;3.58;;;2.95;;
51459;SDS011;37534;39.772;2.718;2023-06-26T14:33:35;3.60;;;2.90;;
51459;SDS011;37534;39.772;2.718;2023-06-26T14:36:01;4.28;;;3.00;;
51459;SDS011;37534;39.772;2.718;2023-06-26T14:38:27;3.20;;;2.83;;
51459;SDS011;37534;39.772;2.718;2023-06-26T14:40:53;4.30;;;3.10;;
51459;SDS011;37534;39.772;2.718;2023-06-26T14:43:18;5.38;;;3.42;;
51459;SDS011;37534;39.772;2.718;2023-06-26T14:45:44;3.28;;;2.88;;
51459;SDS011;37534;39.772;2.718;2023-06-26T14:48:09;5.65;;;2.88;;
51459;SDS011;37534;39.772;2.718;2023-06-26T14:50:35;3.35;;;2.92;;
51459;SDS011;37534;39.772;2.718;2023-06-26T14:53:00;3.47;;;3.17;;
51459;SDS011;37534;39.772;2.718;2023-06-26T14:55:26;3.38;;;2.90;;
51459;SDS011;37534;39.772;2.718;2023-06-26T14:57:51;8.02;;;2.25;;
51459;SDS011;37534;39.772;2.718;2023-06-26T15:00:17;3.15;;;2.85;;